Terminal Aerodrome Forecast
Issued by NWS

Home | Current Version | Previous Version | Text Only | Print | Product List | Glossary On
Versions: 1 2 3 4 5 6 7 8 9 10 11 12 13 14 15 16 17 18 19 20 21 22 23 24 25 26 27
000
FTUS42 KCAE 201500 AAA
TAFOGB
TAF AMD
KOGB 201501Z 2015/2112 05003KT 5SM -RA BR SCT007 BKN050
      TEMPO 2015/2018 2SM -RA BR BKN006
     FM201800 05004KT P6SM SCT007 BKN025
     FM210400 VRB03KT 4SM BR OVC015=

USA.gov is the U.S. government's official web portal to all federal, state and local government web resources and services.